createdAt,value
2022-10-18T00:03:31.151Z,96649.00
2022-10-18T00:08:59.120Z,96652.00
2022-10-18T00:14:28.044Z,96653.00
2022-10-18T00:19:56.638Z,96661.00
2022-10-18T00:25:24.508Z,96667.00
2022-10-18T00:30:53.275Z,96648.00
2022-10-18T00:36:22.139Z,96651.00
2022-10-18T00:41:50.594Z,96647.00
2022-10-18T00:47:19.844Z,96646.00
2022-10-18T00:52:53.695Z,96649.00
2022-10-18T00:58:21.593Z,96647.00
2022-10-18T01:03:51.089Z,96644.00
2022-10-18T01:09:34.826Z,96643.00
2022-10-18T01:15:24.457Z,96633.00
2022-10-18T01:21:13.345Z,96631.00
2022-10-18T01:27:27.993Z,96625.00
2022-10-18T01:33:15.520Z,96638.00
2022-10-18T01:38:45.233Z,96640.00
2022-10-18T01:44:19.769Z,96627.00
2022-10-18T01:49:47.624Z,96633.00
2022-10-18T01:55:16.277Z,96630.00
2022-10-18T02:00:44.453Z,96632.00
2022-10-18T02:06:24.542Z,96618.00
2022-10-18T02:11:55.189Z,96620.00
2022-10-18T02:17:26.475Z,96619.00
2022-10-18T02:22:56.976Z,96618.00
2022-10-18T02:34:30.082Z,96632.00
2022-10-18T02:39:58.246Z,96625.00
2022-10-18T02:45:27.411Z,96623.00
2022-10-18T02:50:55.223Z,96618.00
2022-10-18T02:56:23.058Z,96641.00
2022-10-18T03:01:50.943Z,96630.00
2022-10-18T03:07:18.874Z,96627.00
2022-10-18T03:12:46.647Z,96629.00
2022-10-18T03:18:15.219Z,96630.00
2022-10-18T03:23:44.009Z,96631.00
2022-10-18T03:29:12.265Z,96631.00
2022-10-18T03:34:39.992Z,96642.00
2022-10-18T03:40:08.963Z,96651.00
2022-10-18T03:45:36.753Z,96653.00
2022-10-18T03:51:04.668Z,96645.00
2022-10-18T03:56:33.091Z,96647.00
2022-10-18T04:02:00.900Z,96650.00
2022-10-18T04:07:28.743Z,96642.00
2022-10-18T04:12:56.601Z,96647.00
2022-10-18T04:18:24.369Z,96651.00
2022-10-18T04:23:52.223Z,96663.00
2022-10-18T04:29:19.963Z,96662.00
2022-10-18T04:34:47.668Z,96661.00
2022-10-18T04:40:15.615Z,96653.00
2022-10-18T04:45:46.409Z,96653.00
2022-10-18T04:51:14.132Z,96654.00
2022-10-18T04:56:41.827Z,96646.00
2022-10-18T05:02:09.615Z,96642.00
2022-10-18T05:07:37.829Z,96641.00
2022-10-18T05:13:05.661Z,96631.00
2022-10-18T05:18:33.489Z,96642.00
2022-10-18T05:24:01.552Z,96651.00
2022-10-18T05:29:29.382Z,96659.00
2022-10-18T05:34:57.102Z,96625.00
2022-10-18T05:40:24.834Z,96608.00
2022-10-18T05:45:52.647Z,96617.00
2022-10-18T05:51:20.641Z,96618.00
2022-10-18T05:56:48.436Z,96635.00
2022-10-18T06:02:16.313Z,96647.00
2022-10-18T06:07:44.120Z,96651.00
2022-10-18T06:13:11.857Z,96662.00
2022-10-18T06:18:40.095Z,96664.00
2022-10-18T06:24:07.858Z,96672.00
2022-10-18T06:29:40.015Z,96658.00
2022-10-18T06:35:08.449Z,96656.00
2022-10-18T06:40:38.190Z,96649.00
2022-10-18T06:46:08.198Z,96663.00
2022-10-18T06:51:36.328Z,96657.00
2022-10-18T06:57:04.119Z,96660.00
2022-10-18T07:02:32.106Z,96677.00
2022-10-18T07:08:00.095Z,96695.00
2022-10-18T07:13:33.247Z,96690.00
2022-10-18T07:19:01.346Z,96698.00
2022-10-18T07:24:29.169Z,96705.00
2022-10-18T07:29:56.954Z,96700.00
2022-10-18T07:35:24.646Z,96688.00
2022-10-18T07:40:58.692Z,96687.00
2022-10-18T07:46:26.731Z,96688.00
2022-10-18T07:51:54.442Z,96704.00
2022-10-18T07:57:23.449Z,96682.00
2022-10-18T08:02:59.459Z,96696.00
2022-10-18T08:08:29.299Z,96693.00
2022-10-18T08:13:57.133Z,96702.00
2022-10-18T08:19:25.671Z,96712.00
2022-10-18T08:24:53.622Z,96709.00
2022-10-18T08:30:23.356Z,96707.00
2022-10-18T08:36:02.872Z,96712.00
2022-10-18T08:41:44.167Z,96713.00
2022-10-18T08:47:40.381Z,96704.00
2022-10-18T08:53:29.275Z,96701.00
2022-10-18T08:58:57.022Z,96699.00
2022-10-18T09:04:59.554Z,96700.00
2022-10-18T09:10:55.054Z,96697.00
2022-10-18T09:16:52.525Z,96691.00
2022-10-18T09:22:47.798Z,96691.00
2022-10-18T09:28:30.650Z,96698.00
2022-10-18T09:34:12.546Z,96704.00
2022-10-18T09:39:41.309Z,96696.00
2022-10-18T09:45:31.207Z,96694.00
2022-10-18T09:51:17.944Z,96699.00
2022-10-18T09:57:08.647Z,96698.00
2022-10-18T10:02:36.642Z,96700.00
2022-10-18T10:08:05.260Z,96700.00
2022-10-18T10:13:44.370Z,96687.00
2022-10-18T10:19:25.573Z,96686.00
2022-10-18T10:24:55.278Z,96688.00
2022-10-18T10:30:25.655Z,96674.00
2022-10-18T10:36:17.449Z,96671.00
2022-10-18T10:41:53.302Z,96676.00
2022-10-18T10:47:32.910Z,96668.00
2022-10-18T10:53:00.872Z,96671.00
2022-10-18T10:58:35.389Z,96663.00
2022-10-18T11:04:29.576Z,96658.00
2022-10-18T11:10:10.939Z,96647.00
2022-10-18T11:15:45.335Z,96646.00
2022-10-18T11:21:31.106Z,96642.00
2022-10-18T11:27:28.916Z,96639.00
2022-10-18T11:33:13.518Z,96641.00
2022-10-18T11:39:35.160Z,96632.00
2022-10-18T11:45:11.576Z,96621.00
2022-10-18T11:50:57.114Z,96622.00
2022-10-18T11:56:52.360Z,96623.00
2022-10-18T12:02:57.587Z,96614.00
2022-10-18T12:08:51.229Z,96611.00
2022-10-18T12:14:28.485Z,96599.00
2022-10-18T12:20:00.096Z,96601.00
2022-10-18T12:25:32.909Z,96594.00
2022-10-18T12:31:17.112Z,96586.00
2022-10-18T12:37:12.968Z,96585.00
2022-10-18T12:42:49.909Z,96573.00
2022-10-18T12:48:42.498Z,96573.00
2022-10-18T12:54:12.695Z,96575.00
2022-10-18T12:59:41.554Z,96556.00
2022-10-18T13:05:55.894Z,96559.00
2022-10-18T13:11:32.887Z,96569.00
2022-10-18T13:17:24.211Z,96563.00
2022-10-18T13:23:19.668Z,96559.00
2022-10-18T13:29:19.209Z,96568.00
2022-10-18T13:34:46.988Z,96562.00
2022-10-18T13:40:26.076Z,96570.00
2022-10-18T13:45:55.829Z,96567.00
2022-10-18T13:51:26.128Z,96574.00
2022-10-18T13:57:32.114Z,96571.00
2022-10-18T14:03:51.915Z,96576.00
2022-10-18T14:09:32.855Z,96568.00
2022-10-18T14:15:24.653Z,96576.00
2022-10-18T14:21:12.847Z,96575.00
2022-10-18T14:26:41.831Z,96584.00
2022-10-18T14:32:22.386Z,96586.00
2022-10-18T14:37:53.429Z,96580.00
2022-10-18T14:43:21.409Z,96580.00
2022-10-18T14:49:01.586Z,96579.00
2022-10-18T14:54:33.810Z,96565.00
2022-10-18T15:00:09.695Z,96575.00
2022-10-18T15:05:37.543Z,96581.00
2022-10-18T15:11:10.501Z,96578.00
2022-10-18T15:16:41.795Z,96591.00
2022-10-18T15:27:59.886Z,96588.00
2022-10-18T15:33:33.656Z,96583.00
2022-10-18T15:39:16.561Z,96595.00
2022-10-18T15:44:51.081Z,96583.00
2022-10-18T15:50:52.384Z,96588.00
2022-10-18T15:56:37.603Z,96578.00
2022-10-18T16:02:11.801Z,96593.00
2022-10-18T16:07:39.581Z,96589.00
2022-10-18T16:13:08.065Z,96584.00
2022-10-18T16:18:35.912Z,96596.00
2022-10-18T16:24:05.277Z,96604.00
2022-10-18T16:29:34.559Z,96612.00
2022-10-18T16:35:02.280Z,96619.00
2022-10-18T16:40:30.426Z,96625.00
2022-10-18T16:45:58.190Z,96637.00
2022-10-18T16:51:26.763Z,96641.00
2022-10-18T16:56:56.736Z,96650.00
2022-10-18T17:02:24.585Z,96658.00
2022-10-18T17:07:52.354Z,96652.00
2022-10-18T17:13:21.438Z,96659.00
2022-10-18T17:18:49.523Z,96653.00
2022-10-18T17:24:17.304Z,96649.00
2022-10-18T17:29:45.143Z,96663.00
2022-10-18T17:35:13.320Z,96667.00
2022-10-18T17:40:42.912Z,96676.00
2022-10-18T17:46:13.173Z,96678.00
2022-10-18T17:51:42.872Z,96685.00
2022-10-18T17:57:10.665Z,96691.00
2022-10-18T18:02:41.779Z,96695.00
2022-10-18T18:08:10.537Z,96699.00
2022-10-18T18:13:38.625Z,96696.00
2022-10-18T18:19:09.872Z,96690.00
2022-10-18T18:24:37.956Z,96693.00
2022-10-18T18:30:08.471Z,96691.00
2022-10-18T18:35:40.128Z,96699.00
2022-10-18T18:41:11.316Z,96693.00
2022-10-18T18:46:39.376Z,96698.00
2022-10-18T18:52:07.694Z,96691.00
2022-10-18T18:57:35.678Z,96697.00
2022-10-18T19:03:04.840Z,96700.00
2022-10-18T19:08:35.511Z,96700.00
2022-10-18T19:14:05.485Z,96701.00
2022-10-18T19:19:34.372Z,96703.00
2022-10-18T19:25:02.281Z,96701.00
2022-10-18T19:30:33.413Z,96689.00
2022-10-18T19:36:01.189Z,96692.00
2022-10-18T19:41:29.388Z,96690.00
2022-10-18T19:46:58.125Z,96688.00
2022-10-18T19:52:28.652Z,96686.00
2022-10-18T19:57:56.755Z,96694.00
2022-10-18T20:03:25.207Z,96693.00
2022-10-18T20:08:53.583Z,96701.00
2022-10-18T20:14:21.645Z,96701.00
2022-10-18T20:19:49.505Z,96705.00
2022-10-18T20:25:17.600Z,96705.00
2022-10-18T20:30:46.061Z,96696.00
2022-10-18T20:36:18.927Z,96707.00
2022-10-18T20:41:46.952Z,96716.00
2022-10-18T20:47:14.726Z,96717.00
2022-10-18T20:52:43.777Z,96712.00
2022-10-18T20:58:12.001Z,96717.00
2022-10-18T21:03:42.534Z,96714.00
2022-10-18T21:09:19.585Z,96711.00
2022-10-18T21:14:47.565Z,96700.00
2022-10-18T21:20:15.408Z,96694.00
2022-10-18T21:25:47.714Z,96693.00
2022-10-18T21:31:19.748Z,96689.00
2022-10-18T21:36:48.523Z,96694.00
2022-10-18T21:42:16.447Z,96685.00
2022-10-18T21:47:44.265Z,96688.00
2022-10-18T21:53:13.691Z,96676.00
2022-10-18T21:58:42.443Z,96679.00
2022-10-18T22:04:24.115Z,96677.00
2022-10-18T22:09:52.621Z,96677.00
2022-10-18T22:15:20.508Z,96673.00
2022-10-18T22:21:00.920Z,96669.00
2022-10-18T22:26:32.773Z,96658.00
2022-10-18T22:32:01.856Z,96666.00
2022-10-18T22:37:29.761Z,96652.00
2022-10-18T22:42:57.644Z,96661.00
2022-10-18T22:48:25.538Z,96654.00
2022-10-18T22:53:53.341Z,96645.00
2022-10-18T22:59:21.127Z,96651.00
2022-10-18T23:04:48.880Z,96649.00
2022-10-18T23:10:16.870Z,96651.00
2022-10-18T23:15:44.667Z,96642.00
2022-10-18T23:21:14.282Z,96644.00
2022-10-18T23:26:42.088Z,96639.00
2022-10-18T23:32:09.848Z,96639.00
2022-10-18T23:37:37.837Z,96635.00
2022-10-18T23:43:05.738Z,96636.00
2022-10-18T23:48:34.340Z,96625.00
2022-10-18T23:54:02.127Z,96622.00
2022-10-18T23:59:31.006Z,96631.00
